createdAt,value
2022-11-17T00:00:04.192Z,95.79
2022-11-17T00:01:04.184Z,95.41
2022-11-17T00:02:04.278Z,95.70
2022-11-17T00:03:04.235Z,95.22
2022-11-17T00:04:04.124Z,95.03
2022-11-17T00:05:04.103Z,95.41
2022-11-17T00:06:04.087Z,95.41
2022-11-17T00:07:04.143Z,95.60
2022-11-17T00:08:04.055Z,95.89
2022-11-17T00:09:04.036Z,95.79
2022-11-17T00:10:04.019Z,95.51
2022-11-17T00:11:03.999Z,95.41
2022-11-17T00:12:03.994Z,94.93
2022-11-17T00:13:03.963Z,94.84
2022-11-17T00:14:03.950Z,94.65
2022-11-17T00:15:03.928Z,94.84
2022-11-17T00:16:03.915Z,95.60
2022-11-17T00:17:03.897Z,94.74
2022-11-17T00:18:03.879Z,95.60
2022-11-17T00:19:03.960Z,95.03
2022-11-17T00:20:03.849Z,95.41
2022-11-17T00:21:11.017Z,95.03
2022-11-17T00:23:07.804Z,95.60
2022-11-17T00:24:07.750Z,95.12
2022-11-17T00:26:11.703Z,95.41
2022-11-17T00:27:11.672Z,95.22
2022-11-17T00:29:15.642Z,95.22
2022-11-17T00:30:15.587Z,95.32
2022-11-17T00:32:08.496Z,95.22
2022-11-17T00:33:08.450Z,95.41
2022-11-17T00:35:12.451Z,94.93
2022-11-17T00:36:12.379Z,95.70
2022-11-17T00:38:16.347Z,95.60
2022-11-17T00:39:16.303Z,95.79
2022-11-17T00:41:20.269Z,95.89
2022-11-17T00:42:20.223Z,95.89
2022-11-17T00:44:24.237Z,95.60
2022-11-17T00:45:24.157Z,95.70
2022-11-17T00:47:28.121Z,95.89
2022-11-17T00:48:28.079Z,96.08
2022-11-17T00:50:32.138Z,95.79
2022-11-17T00:51:32.012Z,96.08
2022-11-17T00:53:36.193Z,96.17
2022-11-17T00:54:35.925Z,96.08
2022-11-17T00:56:39.910Z,95.89
2022-11-17T00:57:39.852Z,95.98
2022-11-17T00:58:39.836Z,96.46
2022-11-17T00:59:39.816Z,96.46
2022-11-17T01:00:39.803Z,96.08
2022-11-17T01:01:39.854Z,96.27
2022-11-17T01:02:39.767Z,96.17
2022-11-17T01:03:39.769Z,96.36
2022-11-17T01:04:39.731Z,96.22
2022-11-17T01:05:39.807Z,96.12
2022-11-17T01:06:39.694Z,96.31
2022-11-17T01:07:39.748Z,96.12
2022-11-17T01:08:39.660Z,97.03
2022-11-17T01:09:39.642Z,96.79
2022-11-17T01:10:39.625Z,96.51
2022-11-17T01:11:39.606Z,96.89
2022-11-17T01:12:39.588Z,96.79
2022-11-17T01:13:39.572Z,96.98
2022-11-17T01:14:39.556Z,96.79
2022-11-17T01:15:39.545Z,96.79
2022-11-17T01:16:39.523Z,97.27
2022-11-17T01:17:39.503Z,97.46
2022-11-17T01:18:39.483Z,97.08
2022-11-17T01:19:39.470Z,97.17
2022-11-17T01:20:39.450Z,96.98
2022-11-17T01:21:39.528Z,97.46
2022-11-17T01:22:39.417Z,97.17
2022-11-17T01:23:39.395Z,96.98
2022-11-17T01:24:39.386Z,97.17
2022-11-17T01:25:39.364Z,97.17
2022-11-17T01:26:39.344Z,97.46
2022-11-17T01:27:39.330Z,97.46
2022-11-17T01:28:39.310Z,97.46
2022-11-17T01:29:39.290Z,97.27
2022-11-17T01:30:39.272Z,97.31
2022-11-17T01:31:39.256Z,97.27
2022-11-17T01:32:39.249Z,97.08
2022-11-17T01:33:39.222Z,96.98
2022-11-17T01:34:39.206Z,97.17
2022-11-17T01:35:39.185Z,97.46
2022-11-17T01:36:39.169Z,97.27
2022-11-17T01:37:39.158Z,97.51
2022-11-17T01:38:39.132Z,97.08
2022-11-17T01:39:39.114Z,97.17
2022-11-17T01:40:39.100Z,97.17
2022-11-17T01:41:39.080Z,97.46
2022-11-17T01:42:39.066Z,97.46
2022-11-17T01:43:39.044Z,97.46
2022-11-17T01:44:39.027Z,97.22
2022-11-17T01:45:39.015Z,97.36
2022-11-17T01:46:38.994Z,97.46
2022-11-17T01:47:38.973Z,96.98
2022-11-17T01:48:38.963Z,96.98
2022-11-17T01:49:38.940Z,97.08
2022-11-17T01:50:38.927Z,97.17
2022-11-17T01:51:38.904Z,97.55
2022-11-17T01:52:38.886Z,97.55
2022-11-17T01:53:38.929Z,97.74
2022-11-17T01:54:38.851Z,97.17
2022-11-17T01:55:38.832Z,97.36
2022-11-17T01:56:38.817Z,97.36
2022-11-17T01:57:38.801Z,97.36
2022-11-17T01:58:38.782Z,97.36
2022-11-17T01:59:38.761Z,97.36
2022-11-17T02:00:38.758Z,97.27
2022-11-17T02:01:38.775Z,97.65
2022-11-17T02:02:38.709Z,97.84
2022-11-17T02:03:38.826Z,97.74
2022-11-17T02:04:38.673Z,98.03
2022-11-17T02:05:38.661Z,98.22
2022-11-17T02:06:38.637Z,97.93
2022-11-17T02:07:38.725Z,98.50
2022-11-17T02:08:38.601Z,98.41
2022-11-17T02:09:38.593Z,98.13
2022-11-17T02:10:38.568Z,98.22
2022-11-17T02:11:38.552Z,98.03
2022-11-17T02:12:38.533Z,98.13
2022-11-17T02:13:38.514Z,98.41
2022-11-17T02:14:38.499Z,98.32
2022-11-17T02:15:38.482Z,98.60
2022-11-17T02:16:38.464Z,99.08
2022-11-17T02:17:38.446Z,99.36
2022-11-17T02:18:38.428Z,99.17
2022-11-17T02:19:38.411Z,98.41
2022-11-17T02:20:38.390Z,98.88
2022-11-17T02:21:38.373Z,98.69
2022-11-17T02:22:38.355Z,98.22
2022-11-17T02:23:38.347Z,98.69
2022-11-17T02:24:38.325Z,98.50
2022-11-17T02:25:38.304Z,98.88
2022-11-17T02:26:38.284Z,99.08
2022-11-17T02:27:38.269Z,98.88
2022-11-17T02:28:38.246Z,98.69
2022-11-17T02:29:38.232Z,98.79
2022-11-17T02:30:38.213Z,98.79
2022-11-17T02:31:38.200Z,98.79
2022-11-17T02:32:38.185Z,98.50
2022-11-17T02:33:38.386Z,98.69
2022-11-17T02:34:38.144Z,98.79
2022-11-17T02:35:38.125Z,98.55
2022-11-17T02:36:38.107Z,98.84
2022-11-17T02:37:38.092Z,98.98
2022-11-17T02:38:38.075Z,98.94
2022-11-17T02:39:38.062Z,98.08
2022-11-17T02:40:38.034Z,98.46
2022-11-17T02:41:38.020Z,98.36
2022-11-17T02:42:38.004Z,98.08
2022-11-17T02:43:38.291Z,98.36
2022-11-17T02:44:37.966Z,97.70
2022-11-17T02:45:37.951Z,97.99
2022-11-17T02:46:37.928Z,97.89
2022-11-17T02:47:37.921Z,98.18
2022-11-17T02:48:37.896Z,98.18
2022-11-17T02:49:37.876Z,98.08
2022-11-17T02:50:37.859Z,97.70
2022-11-17T02:51:37.843Z,97.31
2022-11-17T02:52:37.831Z,97.41
2022-11-17T02:53:38.340Z,97.22
2022-11-17T02:54:37.788Z,97.41
2022-11-17T02:55:37.774Z,97.22
2022-11-17T02:56:37.753Z,97.13
2022-11-17T02:57:37.832Z,97.03
2022-11-17T02:58:37.716Z,97.31
2022-11-17T02:59:37.703Z,97.13
2022-11-17T03:00:37.681Z,96.84
2022-11-17T03:01:37.739Z,96.75
2022-11-17T03:02:37.648Z,96.84
2022-11-17T03:03:37.875Z,96.55
2022-11-17T03:04:37.611Z,97.03
2022-11-17T03:05:37.597Z,96.36
2022-11-17T03:06:37.577Z,96.32
2022-11-17T03:07:37.628Z,96.36
2022-11-17T03:08:37.543Z,96.27
2022-11-17T03:09:37.526Z,96.27
2022-11-17T03:10:37.505Z,96.55
2022-11-17T03:11:37.491Z,96.36
2022-11-17T03:12:37.474Z,96.46
2022-11-17T03:13:37.806Z,96.84
2022-11-17T03:14:37.438Z,96.94
2022-11-17T03:15:37.420Z,96.94
2022-11-17T03:16:37.401Z,96.65
2022-11-17T03:17:37.387Z,96.75
2022-11-17T03:18:37.365Z,96.84
2022-11-17T03:19:37.356Z,97.03
2022-11-17T03:20:37.332Z,97.03
2022-11-17T03:21:37.314Z,97.13
2022-11-17T03:22:37.299Z,97.31
2022-11-17T03:23:37.671Z,97.22
2022-11-17T03:24:37.265Z,97.22
2022-11-17T03:25:37.245Z,97.51
2022-11-17T03:26:37.229Z,97.31
2022-11-17T03:27:37.210Z,97.51
2022-11-17T03:28:37.197Z,97.13
2022-11-17T03:29:37.272Z,97.22
2022-11-17T03:30:37.761Z,97.22
2022-11-17T03:31:37.139Z,97.31
2022-11-17T03:32:37.120Z,97.31
2022-11-17T03:33:37.558Z,97.13
2022-11-17T03:34:37.084Z,97.41
2022-11-17T03:35:37.069Z,97.31
2022-11-17T03:36:37.053Z,97.51
2022-11-17T03:37:37.035Z,97.51
2022-11-17T03:38:37.017Z,97.51
2022-11-17T03:39:36.998Z,97.41
2022-11-17T03:40:36.981Z,96.65
2022-11-17T03:41:36.969Z,96.75
2022-11-17T03:42:36.951Z,96.75
2022-11-17T03:43:37.330Z,96.65
2022-11-17T03:44:36.912Z,96.55
2022-11-17T03:45:36.988Z,96.55
2022-11-17T03:46:36.876Z,96.75
2022-11-17T03:47:36.860Z,96.89
2022-11-17T03:48:36.841Z,96.55
2022-11-17T03:49:36.824Z,97.13
2022-11-17T03:50:36.807Z,97.13
2022-11-17T03:51:36.790Z,96.84
2022-11-17T03:52:36.773Z,97.13
2022-11-17T03:53:37.002Z,97.17
2022-11-17T03:54:36.738Z,97.22
2022-11-17T03:55:36.724Z,97.31
2022-11-17T03:56:36.703Z,97.22
2022-11-17T03:57:36.687Z,96.84
2022-11-17T03:58:36.668Z,96.84
2022-11-17T03:59:36.651Z,96.65
2022-11-17T04:00:36.631Z,96.46
2022-11-17T04:01:36.688Z,96.65
2022-11-17T04:02:36.597Z,96.55
2022-11-17T04:03:36.872Z,96.36
2022-11-17T04:04:36.562Z,96.22
2022-11-17T04:05:36.545Z,96.22
2022-11-17T04:06:36.529Z,96.41
2022-11-17T04:07:36.573Z,96.12
2022-11-17T04:08:36.507Z,96.32
2022-11-17T04:09:36.477Z,96.12
2022-11-17T04:10:36.456Z,96.70
2022-11-17T04:11:36.449Z,96.60
2022-11-17T04:12:36.421Z,97.17
2022-11-17T04:13:36.860Z,97.51
2022-11-17T04:14:36.390Z,97.03
2022-11-17T04:15:36.369Z,97.46
2022-11-17T04:16:36.354Z,97.41
2022-11-17T04:17:36.338Z,97.70
2022-11-17T04:18:36.319Z,97.13
2022-11-17T04:19:36.303Z,97.51
2022-11-17T04:20:36.283Z,97.31
2022-11-17T04:21:36.269Z,97.22
2022-11-17T04:22:36.248Z,97.70
2022-11-17T04:23:36.501Z,97.51
2022-11-17T04:24:36.221Z,97.41
2022-11-17T04:25:36.204Z,97.27
2022-11-17T04:26:36.178Z,97.75
2022-11-17T04:27:36.177Z,97.27
2022-11-17T04:28:36.143Z,97.51
2022-11-17T04:29:36.132Z,96.84
2022-11-17T04:30:36.109Z,96.70
2022-11-17T04:31:36.095Z,96.80
2022-11-17T04:32:36.082Z,96.80
2022-11-17T04:33:36.551Z,96.51
2022-11-17T04:34:36.036Z,96.51
2022-11-17T04:35:36.030Z,96.41
2022-11-17T04:36:36.003Z,96.32
2022-11-17T04:37:35.988Z,96.03
2022-11-17T04:38:35.976Z,96.12
2022-11-17T04:39:35.953Z,96.03
2022-11-17T04:40:35.937Z,96.51
2022-11-17T04:41:35.919Z,96.32
2022-11-17T04:42:35.902Z,97.27
2022-11-17T04:43:36.210Z,97.65
2022-11-17T04:44:35.865Z,97.75
2022-11-17T04:45:35.885Z,98.22
2022-11-17T04:46:35.828Z,98.79
2022-11-17T04:47:35.814Z,99.13
2022-11-17T04:48:35.809Z,99.79
2022-11-17T04:49:35.871Z,99.51
2022-11-17T04:50:35.761Z,99.51
2022-11-17T04:51:35.763Z,99.89
2022-11-17T04:52:35.728Z,99.99
2022-11-17T04:53:35.987Z,99.99
2022-11-17T04:54:35.705Z,99.99
2022-11-17T04:55:35.675Z,99.99
2022-11-17T04:56:35.683Z,99.99
2022-11-17T04:57:35.640Z,99.99
2022-11-17T04:58:35.619Z,99.99
2022-11-17T04:59:35.600Z,99.99
2022-11-17T05:00:35.584Z,99.99
2022-11-17T05:01:35.569Z,99.99
2022-11-17T05:02:35.588Z,99.99
2022-11-17T05:03:35.848Z,99.99
2022-11-17T05:04:35.515Z,99.99
2022-11-17T05:05:35.499Z,99.99
2022-11-17T05:06:35.475Z,99.99
2022-11-17T05:07:35.518Z,99.99
2022-11-17T05:08:35.443Z,99.99
2022-11-17T05:09:35.424Z,99.99
2022-11-17T05:10:35.481Z,99.99
2022-11-17T05:11:35.391Z,99.99
2022-11-17T05:12:35.376Z,99.99
2022-11-17T05:13:35.660Z,99.99
2022-11-17T05:14:35.338Z,99.99
2022-11-17T05:15:35.320Z,99.99
2022-11-17T05:16:35.300Z,99.99
2022-11-17T05:17:35.284Z,99.99
2022-11-17T05:18:35.267Z,99.99
2022-11-17T05:19:35.253Z,99.99
2022-11-17T05:20:35.229Z,99.99
2022-11-17T05:21:35.235Z,99.99
2022-11-17T05:22:35.198Z,99.99
2022-11-17T05:23:35.525Z,99.99
2022-11-17T05:24:35.158Z,99.99
2022-11-17T05:25:35.144Z,99.99
2022-11-17T05:26:35.123Z,99.99
2022-11-17T05:27:35.106Z,99.99
2022-11-17T05:28:35.090Z,99.99
2022-11-17T05:29:35.071Z,99.99
2022-11-17T05:30:35.051Z,99.99
2022-11-17T05:31:35.034Z,99.99
2022-11-17T05:32:35.018Z,99.99
2022-11-17T05:33:37.768Z,99.99
2022-11-17T05:34:34.985Z,99.99
2022-11-17T05:35:34.967Z,99.99
2022-11-17T05:36:34.943Z,99.99
2022-11-17T05:37:34.932Z,99.99
2022-11-17T05:38:34.909Z,99.99
2022-11-17T05:39:34.892Z,99.99
2022-11-17T05:40:34.880Z,99.99
2022-11-17T05:41:34.859Z,99.99
2022-11-17T05:42:34.836Z,99.99
2022-11-17T05:43:35.151Z,99.99
2022-11-17T05:44:34.809Z,99.99
2022-11-17T05:45:34.785Z,99.99
2022-11-17T05:46:34.763Z,99.99
2022-11-17T05:47:34.748Z,99.99
2022-11-17T05:48:34.734Z,99.99
2022-11-17T05:49:34.744Z,99.99
2022-11-17T05:50:34.690Z,99.99
2022-11-17T05:51:34.675Z,99.99
2022-11-17T05:52:34.659Z,99.99
2022-11-17T05:53:35.043Z,99.99
2022-11-17T05:54:34.621Z,99.99
2022-11-17T05:55:34.604Z,99.99
2022-11-17T05:56:34.592Z,99.99
2022-11-17T05:57:34.573Z,99.99
2022-11-17T05:58:34.548Z,99.99
2022-11-17T05:59:34.529Z,99.99
2022-11-17T06:00:34.513Z,99.99
2022-11-17T06:01:34.499Z,99.99
2022-11-17T06:02:34.477Z,99.99
2022-11-17T06:03:34.890Z,99.99
2022-11-17T06:04:34.494Z,99.99
2022-11-17T06:05:34.428Z,99.99
2022-11-17T06:06:34.408Z,99.99
2022-11-17T06:07:34.448Z,99.99
2022-11-17T06:08:34.369Z,99.99
2022-11-17T06:09:34.445Z,99.99
2022-11-17T06:10:34.333Z,99.99
2022-11-17T06:11:34.315Z,99.99
2022-11-17T06:12:34.298Z,99.99
2022-11-17T06:13:34.606Z,99.99
2022-11-17T06:14:34.275Z,99.99
2022-11-17T06:15:34.246Z,99.99
2022-11-17T06:16:34.226Z,99.99
2022-11-17T06:17:34.210Z,99.99
2022-11-17T06:18:34.190Z,99.99
2022-11-17T06:19:34.173Z,99.99
2022-11-17T06:20:34.158Z,99.99
2022-11-17T06:22:04.439Z,99.99
2022-11-17T06:22:34.116Z,99.99
2022-11-17T06:23:34.472Z,99.99
2022-11-17T06:24:34.089Z,99.99
2022-11-17T06:25:34.162Z,99.99
2022-11-17T06:26:34.046Z,99.99
2022-11-17T06:27:34.036Z,99.99
2022-11-17T06:28:34.013Z,99.99
2022-11-17T06:29:34.768Z,99.99
2022-11-17T06:30:33.975Z,99.99
2022-11-17T06:31:33.961Z,99.99
2022-11-17T06:32:41.282Z,99.99
2022-11-17T06:34:37.915Z,99.99
2022-11-17T06:35:37.875Z,99.99
2022-11-17T06:36:37.858Z,99.99
2022-11-17T06:37:37.839Z,99.99
2022-11-17T06:38:37.822Z,99.99
2022-11-17T06:39:37.802Z,99.99
2022-11-17T06:40:37.795Z,99.99
2022-11-17T06:41:37.767Z,99.99
2022-11-17T06:42:37.752Z,99.99
2022-11-17T06:43:38.132Z,99.99
2022-11-17T06:44:37.717Z,99.99
2022-11-17T06:45:37.696Z,99.99
2022-11-17T06:46:37.678Z,99.99
2022-11-17T06:47:37.660Z,99.99
2022-11-17T06:48:38.219Z,99.99
2022-11-17T06:49:37.624Z,99.99
2022-11-17T06:50:37.608Z,99.99
2022-11-17T06:51:42.322Z,99.99
2022-11-17T06:52:37.571Z,99.99
2022-11-17T06:53:37.873Z,99.99
2022-11-17T06:54:37.538Z,99.99
2022-11-17T06:55:37.516Z,99.99
2022-11-17T06:56:37.598Z,99.99
2022-11-17T06:57:37.480Z,99.99
2022-11-17T06:58:37.847Z,99.99
2022-11-17T06:59:37.448Z,99.99
2022-11-17T07:00:37.485Z,99.99
2022-11-17T07:01:37.417Z,99.99
2022-11-17T07:02:37.393Z,99.99
2022-11-17T07:03:37.563Z,99.99
2022-11-17T07:04:37.358Z,99.99
2022-11-17T07:05:39.902Z,99.99
2022-11-17T07:06:37.321Z,99.99
2022-11-17T07:07:37.349Z,99.99
2022-11-17T07:08:37.578Z,99.99
2022-11-17T07:09:37.267Z,99.99
2022-11-17T07:10:37.252Z,99.99
2022-11-17T07:11:37.233Z,99.99
2022-11-17T07:12:37.230Z,99.99
2022-11-17T07:13:37.200Z,99.99
2022-11-17T07:14:37.178Z,99.99
2022-11-17T07:15:37.160Z,99.99
2022-11-17T07:16:37.144Z,99.99
2022-11-17T07:17:37.123Z,99.99
2022-11-17T07:18:37.394Z,99.99
2022-11-17T07:19:37.088Z,99.99
2022-11-17T07:20:37.073Z,99.99
2022-11-17T07:21:37.054Z,99.99
2022-11-17T07:22:37.039Z,99.99
2022-11-17T07:23:37.034Z,99.99
2022-11-17T07:24:37.003Z,99.99
2022-11-17T07:25:36.980Z,99.99
2022-11-17T07:26:36.965Z,99.99
2022-11-17T07:27:36.947Z,99.99
2022-11-17T07:28:37.388Z,99.99
2022-11-17T07:29:36.911Z,99.99
2022-11-17T07:30:36.895Z,99.99
2022-11-17T07:31:36.874Z,99.99
2022-11-17T07:32:36.858Z,99.99
2022-11-17T07:33:36.845Z,99.99
2022-11-17T07:34:36.826Z,99.99
2022-11-17T07:35:36.805Z,99.99
2022-11-17T07:36:36.789Z,99.99
2022-11-17T07:37:36.770Z,99.99
2022-11-17T07:38:37.029Z,99.99
2022-11-17T07:39:36.735Z,99.99
2022-11-17T07:40:36.720Z,99.99
2022-11-17T07:41:36.701Z,99.99
2022-11-17T07:42:36.685Z,99.99
2022-11-17T07:43:36.673Z,99.99
2022-11-17T07:44:36.724Z,99.99
2022-11-17T07:45:36.629Z,99.99
2022-11-17T07:46:36.615Z,99.99
2022-11-17T07:47:36.595Z,99.99
2022-11-17T07:48:37.055Z,99.99
2022-11-17T07:49:36.563Z,99.99
2022-11-17T07:50:36.545Z,99.99
2022-11-17T07:51:36.526Z,99.99
2022-11-17T07:52:41.279Z,99.99
2022-11-17T07:53:36.492Z,99.99
2022-11-17T07:54:36.476Z,99.99
2022-11-17T07:55:36.457Z,99.99
2022-11-17T07:56:36.442Z,99.99
2022-11-17T07:57:36.422Z,99.99
2022-11-17T07:58:36.693Z,99.99
2022-11-17T07:59:36.386Z,99.99
2022-11-17T08:00:36.431Z,99.99
2022-11-17T08:01:36.351Z,99.99
2022-11-17T08:02:36.335Z,99.99
2022-11-17T08:03:36.369Z,99.99
2022-11-17T08:04:36.318Z,99.99
2022-11-17T08:05:41.641Z,99.99
2022-11-17T08:06:36.267Z,99.99
2022-11-17T08:07:36.304Z,99.99
2022-11-17T08:08:36.552Z,99.99
2022-11-17T08:09:36.213Z,99.99
2022-11-17T08:10:36.198Z,99.99
2022-11-17T08:11:36.179Z,99.99
2022-11-17T08:12:36.162Z,99.99
2022-11-17T08:13:36.142Z,99.99
2022-11-17T08:14:36.127Z,99.99
2022-11-17T08:15:36.109Z,99.99
2022-11-17T08:16:36.191Z,99.99
2022-11-17T08:17:36.075Z,99.99
2022-11-17T08:18:36.650Z,99.99
2022-11-17T08:19:36.040Z,99.99
2022-11-17T08:20:36.023Z,99.99
2022-11-17T08:21:36.004Z,99.99
2022-11-17T08:22:35.991Z,99.99
2022-11-17T08:23:35.976Z,99.99
2022-11-17T08:24:35.954Z,99.99
2022-11-17T08:25:35.937Z,99.99
2022-11-17T08:26:35.919Z,99.99
2022-11-17T08:27:35.901Z,99.99
2022-11-17T08:28:36.095Z,99.99
2022-11-17T08:29:35.868Z,99.99
2022-11-17T08:30:35.854Z,99.99
2022-11-17T08:31:35.835Z,99.99
2022-11-17T08:32:35.915Z,99.99
2022-11-17T08:33:35.799Z,99.99
2022-11-17T08:34:35.783Z,99.99
2022-11-17T08:35:37.651Z,99.99
2022-11-17T08:36:35.745Z,99.99
2022-11-17T08:37:35.732Z,99.99
2022-11-17T08:38:36.074Z,99.99
2022-11-17T08:39:35.693Z,99.99
2022-11-17T08:40:35.680Z,99.99
2022-11-17T08:41:35.660Z,99.99
2022-11-17T08:42:35.646Z,99.99
2022-11-17T08:43:35.636Z,99.99
2022-11-17T08:44:35.610Z,99.99
2022-11-17T08:45:35.594Z,99.99
2022-11-17T08:46:35.577Z,99.99
2022-11-17T08:47:35.557Z,99.99
2022-11-17T08:48:36.004Z,99.99
2022-11-17T08:49:35.526Z,99.99
2022-11-17T08:50:35.508Z,99.99
2022-11-17T08:51:35.490Z,99.99
2022-11-17T08:52:35.473Z,99.99
2022-11-17T08:53:35.455Z,99.99
2022-11-17T08:54:35.438Z,99.99
2022-11-17T08:55:40.586Z,99.99
2022-11-17T08:56:35.405Z,99.99
2022-11-17T08:57:35.443Z,99.99
2022-11-17T08:58:35.572Z,99.99
2022-11-17T08:59:35.350Z,99.99
2022-11-17T09:00:35.420Z,99.99
2022-11-17T09:01:35.362Z,99.99
2022-11-17T09:02:35.301Z,99.99
2022-11-17T09:03:35.281Z,99.99
2022-11-17T09:04:35.364Z,99.99
2022-11-17T09:05:35.263Z,99.99
2022-11-17T09:06:35.233Z,99.99
2022-11-17T09:07:35.254Z,99.99
2022-11-17T09:08:50.654Z,99.99
2022-11-17T09:09:35.207Z,99.99
2022-11-17T09:10:35.164Z,99.99
2022-11-17T09:11:35.144Z,99.99
2022-11-17T09:12:35.130Z,99.99
2022-11-17T09:13:35.110Z,99.99
2022-11-17T09:14:35.095Z,99.99
2022-11-17T09:15:35.077Z,99.99
2022-11-17T09:16:35.059Z,99.99
2022-11-17T09:17:35.041Z,99.99
2022-11-17T09:18:35.345Z,99.99
2022-11-17T09:19:35.005Z,99.99
2022-11-17T09:20:35.099Z,99.99
2022-11-17T09:21:34.969Z,99.99
2022-11-17T09:22:34.954Z,99.99
2022-11-17T09:23:35.340Z,99.99
2022-11-17T09:24:34.919Z,99.99
2022-11-17T09:25:34.906Z,99.99
2022-11-17T09:26:34.888Z,99.99
2022-11-17T09:27:34.865Z,99.99
2022-11-17T09:28:35.326Z,99.99
2022-11-17T09:29:34.835Z,99.99
2022-11-17T09:30:34.816Z,99.99
2022-11-17T09:31:34.811Z,99.99
2022-11-17T09:32:34.781Z,99.99
2022-11-17T09:33:34.772Z,99.99
2022-11-17T09:34:34.830Z,99.99
2022-11-17T09:35:34.729Z,99.99
2022-11-17T09:36:34.823Z,99.99
2022-11-17T09:37:34.694Z,99.99
2022-11-17T09:38:34.937Z,99.99
2022-11-17T09:39:34.660Z,99.99
2022-11-17T09:40:37.804Z,99.99
2022-11-17T09:41:34.633Z,99.99
2022-11-17T09:42:34.615Z,99.99
2022-11-17T09:43:34.593Z,99.99
2022-11-17T09:44:34.587Z,99.99
2022-11-17T09:45:34.565Z,99.99
2022-11-17T09:46:34.544Z,99.99
2022-11-17T09:47:34.529Z,99.99
2022-11-17T09:48:41.226Z,99.99
2022-11-17T09:49:34.493Z,99.99
2022-11-17T09:50:34.480Z,99.99
2022-11-17T09:51:34.459Z,99.99
2022-11-17T09:52:34.546Z,99.99
2022-11-17T09:53:34.606Z,99.99
2022-11-17T09:54:34.413Z,99.99
2022-11-17T09:55:34.687Z,99.99
2022-11-17T09:56:34.375Z,99.99
2022-11-17T09:57:34.363Z,99.99
2022-11-17T09:58:34.698Z,99.99
2022-11-17T09:59:34.332Z,99.99
2022-11-17T10:00:34.313Z,99.99
2022-11-17T10:01:34.297Z,99.99
2022-11-17T10:02:34.348Z,99.99
2022-11-17T10:03:36.481Z,99.99
2022-11-17T10:04:34.248Z,99.99
2022-11-17T10:05:34.229Z,99.99
2022-11-17T10:06:34.216Z,99.99
2022-11-17T10:07:34.223Z,99.99
2022-11-17T10:08:34.180Z,99.99
2022-11-17T10:09:34.163Z,99.99
2022-11-17T10:10:34.149Z,99.99
2022-11-17T10:11:34.156Z,99.99
2022-11-17T10:12:34.116Z,99.99
2022-11-17T10:13:34.401Z,99.99
2022-11-17T10:14:34.083Z,99.99
2022-11-17T10:15:34.066Z,99.99
2022-11-17T10:16:34.047Z,99.99
2022-11-17T10:17:34.030Z,99.99
2022-11-17T10:18:37.912Z,99.99
2022-11-17T10:19:33.997Z,99.99
2022-11-17T10:20:33.982Z,99.99
2022-11-17T10:21:33.965Z,99.99
2022-11-17T10:22:33.950Z,99.99
2022-11-17T10:23:34.198Z,99.99
2022-11-17T10:24:34.022Z,99.99
2022-11-17T10:25:33.898Z,99.99
2022-11-17T10:26:33.885Z,99.99
2022-11-17T10:27:34.146Z,99.99
2022-11-17T10:28:33.851Z,99.99
2022-11-17T10:29:33.834Z,99.99
2022-11-17T10:30:33.818Z,99.99
2022-11-17T10:31:33.799Z,99.99
2022-11-17T10:32:33.792Z,99.99
2022-11-17T10:33:34.014Z,99.99
2022-11-17T10:34:40.253Z,99.99
2022-11-17T10:35:33.731Z,99.99
2022-11-17T10:36:33.935Z,99.99
2022-11-17T10:37:33.714Z,99.99
2022-11-17T10:38:33.685Z,99.99
2022-11-17T10:39:33.667Z,99.99
2022-11-17T10:40:33.684Z,99.99
2022-11-17T10:41:33.634Z,99.99
2022-11-17T10:42:33.616Z,99.99
2022-11-17T10:43:33.908Z,99.99
2022-11-17T10:44:33.583Z,99.76
2022-11-17T10:45:33.569Z,97.80
2022-11-17T10:46:44.919Z,96.18
2022-11-17T10:47:33.532Z,95.51
2022-11-17T10:48:33.595Z,94.93
2022-11-17T10:49:33.505Z,95.22
2022-11-17T10:50:33.490Z,95.89
2022-11-17T10:51:33.473Z,93.79
2022-11-17T10:52:33.457Z,93.88
2022-11-17T10:53:34.986Z,93.60
2022-11-17T10:54:33.424Z,93.40
2022-11-17T10:55:33.410Z,92.54
2022-11-17T10:56:33.398Z,93.02
2022-11-17T10:57:33.384Z,93.21
2022-11-17T10:58:33.363Z,91.78
2022-11-17T10:59:33.348Z,91.39
2022-11-17T11:00:33.334Z,91.83
2022-11-17T11:01:33.361Z,92.02
2022-11-17T11:02:33.302Z,91.83
2022-11-17T11:03:33.530Z,91.30
2022-11-17T11:04:33.269Z,91.59
2022-11-17T11:05:33.259Z,92.64
2022-11-17T11:06:33.243Z,93.07
2022-11-17T11:07:33.265Z,93.07
2022-11-17T11:08:33.208Z,93.65
2022-11-17T11:09:33.201Z,93.79
2022-11-17T11:10:33.181Z,95.12
2022-11-17T11:11:36.260Z,95.61
2022-11-17T11:12:33.152Z,95.98
2022-11-17T11:13:33.129Z,96.56
2022-11-17T11:14:33.113Z,96.84
2022-11-17T11:15:33.098Z,97.61
2022-11-17T11:16:33.081Z,97.94
2022-11-17T11:17:33.064Z,98.22
2022-11-17T11:18:33.046Z,98.22
2022-11-17T11:19:33.032Z,98.61
2022-11-17T11:20:33.015Z,98.22
2022-11-17T11:21:32.999Z,98.32
2022-11-17T11:22:32.981Z,98.13
2022-11-17T11:23:32.967Z,98.22
2022-11-17T11:24:32.949Z,98.32
2022-11-17T11:25:32.935Z,98.42
2022-11-17T11:26:32.917Z,98.13
2022-11-17T11:27:32.902Z,98.22
2022-11-17T11:28:32.882Z,97.46
2022-11-17T11:29:32.867Z,97.75
2022-11-17T11:30:32.851Z,97.17
2022-11-17T11:31:32.835Z,97.37
2022-11-17T11:32:32.818Z,97.66
2022-11-17T11:33:32.803Z,97.37
2022-11-17T11:34:32.788Z,97.56
2022-11-17T11:35:32.766Z,97.75
2022-11-17T11:36:32.752Z,98.32
2022-11-17T11:37:32.740Z,98.32
2022-11-17T11:38:32.717Z,98.32
2022-11-17T11:39:32.702Z,98.32
2022-11-17T11:40:32.684Z,98.22
2022-11-17T11:41:32.668Z,98.13
2022-11-17T11:42:32.649Z,98.13
2022-11-17T11:43:32.635Z,98.32
2022-11-17T11:44:32.617Z,98.03
2022-11-17T11:45:32.603Z,98.51
2022-11-17T11:46:32.590Z,98.03
2022-11-17T11:47:32.568Z,98.22
2022-11-17T11:48:32.549Z,98.13
2022-11-17T11:49:32.545Z,98.42
2022-11-17T11:50:34.514Z,98.42
2022-11-17T11:51:32.501Z,99.18
2022-11-17T11:52:32.488Z,99.18
2022-11-17T11:53:32.471Z,99.08
2022-11-17T11:54:32.455Z,99.95
2022-11-17T11:55:32.438Z,99.60
2022-11-17T11:56:32.420Z,99.99
2022-11-17T11:57:32.404Z,99.99
2022-11-17T11:58:32.399Z,99.99
2022-11-17T11:59:32.371Z,99.99
2022-11-17T12:00:32.364Z,99.99
2022-11-17T12:01:32.342Z,99.99
2022-11-17T12:02:32.334Z,99.99
2022-11-17T12:03:32.381Z,99.99
2022-11-17T12:04:32.284Z,99.99
2022-11-17T12:05:32.269Z,99.99
2022-11-17T12:06:32.251Z,99.99
2022-11-17T12:07:32.249Z,99.99
2022-11-17T12:08:32.216Z,99.99
2022-11-17T12:09:32.202Z,99.99
2022-11-17T12:10:32.182Z,99.99
2022-11-17T12:11:32.176Z,99.99
2022-11-17T12:12:32.150Z,99.99
2022-11-17T12:13:32.131Z,99.99
2022-11-17T12:14:32.113Z,99.99
2022-11-17T12:15:32.096Z,99.99
2022-11-17T12:16:32.078Z,99.99
2022-11-17T12:17:32.062Z,99.99
2022-11-17T12:18:32.048Z,99.99
2022-11-17T12:19:32.029Z,99.99
2022-11-17T12:20:32.009Z,99.99
2022-11-17T12:21:31.997Z,99.99
2022-11-17T12:22:31.989Z,99.99
2022-11-17T12:23:31.959Z,99.99
2022-11-17T12:24:31.941Z,99.99
2022-11-17T12:25:31.928Z,99.99
2022-11-17T12:26:31.906Z,99.99
2022-11-17T12:27:31.890Z,99.99
2022-11-17T12:28:31.877Z,99.99
2022-11-17T12:29:31.875Z,99.99
2022-11-17T12:30:31.838Z,99.99
2022-11-17T12:31:31.821Z,99.99
2022-11-17T12:32:31.809Z,99.99
2022-11-17T12:33:39.457Z,99.99
2022-11-17T12:35:36.242Z,99.99
2022-11-17T12:36:36.230Z,99.99
2022-11-17T12:37:36.182Z,99.99
2022-11-17T12:38:36.187Z,99.99
2022-11-17T12:39:36.146Z,99.99
2022-11-17T12:40:36.132Z,99.99
2022-11-17T12:41:36.113Z,99.99
2022-11-17T12:42:36.097Z,99.99
2022-11-17T12:43:36.080Z,99.99
2022-11-17T12:44:36.059Z,99.99
2022-11-17T12:45:40.614Z,99.99
2022-11-17T12:46:36.022Z,99.99
2022-11-17T12:47:36.055Z,99.99
2022-11-17T12:48:36.143Z,99.99
2022-11-17T12:49:35.991Z,99.99
2022-11-17T12:50:35.967Z,99.99
2022-11-17T12:51:35.940Z,99.99
2022-11-17T12:52:35.923Z,99.99
2022-11-17T12:53:35.899Z,99.99
2022-11-17T12:54:35.888Z,99.99
2022-11-17T12:55:35.865Z,99.99
2022-11-17T12:56:35.849Z,99.99
2022-11-17T12:57:35.830Z,99.99
2022-11-17T12:58:35.812Z,99.99
2022-11-17T12:59:35.793Z,99.99
2022-11-17T13:00:35.774Z,99.99
2022-11-17T13:01:35.785Z,99.99
2022-11-17T13:02:35.748Z,99.99
2022-11-17T13:03:35.742Z,99.99
2022-11-17T13:04:35.711Z,99.99
2022-11-17T13:05:35.707Z,99.99
2022-11-17T13:06:36.675Z,99.99